PWSweather.com
Personal Weather Stations
Station Observations
KMILAPEE3
Lapeer Michigan, Lapeer, MI 48446

Lapeer MichiganLapeer, MI 48446

Lat: 43.057, Lon: -83.362

Elevation: 897

Station Type: Oregon Scientific WMR-968

Latest ConditionsUpdated 3:19:01 PM EST Thursday, Jan 29, 2015
Currently Today's Max Today's Min Today's Average
Temperature 29.8°F-1.2°C 32.0°F0.0°C 24.4°F-4.2°C 28.0°F-2.2°C
Dew Point 19.6°F-6.9°C 19.6°F-6.9°C 4.0°F-15.6°C 11.3°F-11.5°C
Winds 7.2 mph NW11.6 kmh NW 14.4 mph SE23.2 kmh SE - 8.6 mph 13.8 kmh
Wind Gusts 13.9 mph22.4 kmh 25.8 mph41.5 kmh - -
Humidity 65% 65% 41% 49%
Pressure 28.79 in974.9 mb 29.12 in986.1 mb 28.73 in972.9 mb -
Hour Temp Dew Point Humidity Winds Wind Gusts Pressure Precip Precip Rate Daily Precip Total
03:19 PM 29.8°F-1.2°C 19.6°F-6.9°C 65% 7.2 mph NW11.6 kmh NW 13.9 mph22.4 kmh 28.79 in974.9 mb 0.00 in0.0 mm 0.00 in/hr0.0 mm/hr 0.00 in0.0 mm
03:14 PM 29.8°F-1.2°C 19.6°F-6.9°C 65% 6.9 mph NW11.1 kmh NW 13.9 mph22.4 kmh 28.76 in973.9 mb 0.00 in0.0 mm 0.00 in/hr0.0 mm/hr 0.00 in0.0 mm
03:08 PM 29.8°F-1.2°C 19.2°F-7.1°C 64% 8.2 mph NW13.2 kmh NW 17.6 mph28.3 kmh 28.76 in973.9 mb 0.00 in0.0 mm 0.00 in/hr0.0 mm/hr 0.00 in0.0 mm
03:03 PM 30.0°F-1.1°C 19.4°F-7.0°C 64% 8.6 mph NW13.8 kmh NW 19.9 mph32.0 kmh 28.76 in973.9 mb 0.00 in0.0 mm 0.00 in/hr0.0 mm/hr 0.00 in0.0 mm
02:58 PM 30.0°F-1.1°C 19.4°F-7.0°C 64% 10.3 mph WNW16.6 kmh WNW 19.9 mph32.0 kmh 28.76 in973.9 mb 0.00 in0.0 mm 0.00 in/hr0.0 mm/hr 0.00 in0.0 mm
02:53 PM 30.2°F-1.0°C 19.1°F-7.2°C 63% 9.5 mph NW15.3 kmh NW 18.1 mph29.1 kmh 28.76 in973.9 mb 0.00 in0.0 mm 0.00 in/hr0.0 mm/hr 0.00 in0.0 mm
02:48 PM 30.2°F-1.0°C 19.1°F-7.2°C 63% 10.3 mph NW16.6 kmh NW 18.1 mph29.1 kmh 28.76 in973.9 mb 0.00 in0.0 mm 0.00 in/hr0.0 mm/hr 0.00 in0.0 mm
02:43 PM 30.4°F-0.9°C 18.9°F-7.3°C 62% 8.9 mph NW14.3 kmh NW 16.9 mph27.2 kmh 28.76 in973.9 mb 0.00 in0.0 mm 0.00 in/hr0.0 mm/hr 0.00 in0.0 mm
02:37 PM 30.6°F-0.8°C 19.1°F-7.2°C 62% 11.1 mph NW17.9 kmh NW 16.9 mph27.2 kmh 28.76 in973.9 mb 0.00 in0.0 mm 0.00 in/hr0.0 mm/hr 0.00 in0.0 mm
02:32 PM 30.7°F-0.7°C 19.2°F-7.1°C 62% 8.4 mph WNW13.5 kmh WNW 16.9 mph27.2 kmh 28.76 in973.9 mb 0.00 in0.0 mm 0.00 in/hr0.0 mm/hr 0.00 in0.0 mm
02:27 PM 30.7°F-0.7°C 18.7°F-7.4°C 61% 9.1 mph NW14.6 kmh NW 15.1 mph24.3 kmh 28.76 in973.9 mb 0.00 in0.0 mm 0.00 in/hr0.0 mm/hr 0.00 in0.0 mm
02:22 PM 30.9°F-0.6°C 18.9°F-7.3°C 61% 8.1 mph WNW13.0 kmh WNW 15.1 mph24.3 kmh 28.76 in973.9 mb 0.00 in0.0 mm 0.00 in/hr0.0 mm/hr 0.00 in0.0 mm
02:17 PM 30.9°F-0.6°C 18.9°F-7.3°C 61% 11.0 mph WNW17.7 kmh WNW 15.1 mph24.3 kmh 28.76 in973.9 mb 0.00 in0.0 mm 0.00 in/hr0.0 mm/hr 0.00 in0.0 mm
02:11 PM 31.1°F-0.5°C 18.7°F-7.4°C 60% 10.5 mph WNW16.9 kmh WNW 15.7 mph25.3 kmh 28.76 in973.9 mb 0.00 in0.0 mm 0.00 in/hr0.0 mm/hr 0.00 in0.0 mm
02:06 PM 31.3°F-0.4°C 18.9°F-7.3°C 60% 10.3 mph NW16.6 kmh NW 15.7 mph25.3 kmh 28.76 in973.9 mb 0.00 in0.0 mm 0.00 in/hr0.0 mm/hr 0.00 in0.0 mm
02:01 PM 31.5°F-0.3°C 19.1°F-7.2°C 60% 10.2 mph WNW16.4 kmh WNW 15.7 mph25.3 kmh 28.73 in972.9 mb 0.00 in0.0 mm 0.00 in/hr0.0 mm/hr 0.00 in0.0 mm
01:56 PM 31.6°F-0.2°C 19.2°F-7.1°C 60% 10.3 mph WNW16.6 kmh WNW 15.7 mph25.3 kmh 28.73 in972.9 mb 0.00 in0.0 mm 0.00 in/hr0.0 mm/hr 0.00 in0.0 mm
01:51 PM 31.5°F-0.3°C 18.6°F-7.4°C 58% 7.5 mph WNW12.1 kmh WNW 13.9 mph22.4 kmh 28.73 in972.9 mb 0.00 in0.0 mm 0.00 in/hr0.0 mm/hr 0.00 in0.0 mm
01:46 PM 31.3°F-0.4°C 18.4°F-7.6°C 58% 8.6 mph WNW13.8 kmh WNW 15.1 mph24.3 kmh 28.73 in972.9 mb 0.00 in0.0 mm 0.00 in/hr0.0 mm/hr 0.00 in0.0 mm
01:41 PM 31.1°F-0.5°C 18.2°F-7.7°C 58% 9.4 mph WNW15.1 kmh WNW 16.9 mph27.2 kmh 28.73 in972.9 mb 0.00 in0.0 mm 0.00 in/hr0.0 mm/hr 0.00 in0.0 mm
01:36 PM 31.3°F-0.4°C 17.9°F-7.8°C 57% 10.0 mph WNW16.1 kmh WNW 16.9 mph27.2 kmh 28.73 in972.9 mb 0.00 in0.0 mm 0.00 in/hr0.0 mm/hr 0.00 in0.0 mm
01:31 PM 31.3°F-0.4°C 17.5°F-8.1°C 56% 9.9 mph NW15.9 kmh NW 13.9 mph22.4 kmh 28.76 in973.9 mb 0.00 in0.0 mm 0.00 in/hr0.0 mm/hr 0.00 in0.0 mm
01:26 PM 31.3°F-0.4°C 17.5°F-8.1°C 56% 9.0 mph WNW14.5 kmh WNW 12.0 mph19.3 kmh 28.76 in973.9 mb 0.00 in0.0 mm 0.00 in/hr0.0 mm/hr 0.00 in0.0 mm
01:21 PM 31.3°F-0.4°C 17.0°F-8.3°C 55% 8.5 mph WNW13.7 kmh WNW 12.0 mph19.3 kmh 28.76 in973.9 mb 0.00 in0.0 mm 0.00 in/hr0.0 mm/hr 0.00 in0.0 mm
01:16 PM 31.3°F-0.4°C 17.0°F-8.3°C 55% 7.6 mph WNW12.2 kmh WNW 12.0 mph19.3 kmh 28.76 in973.9 mb 0.00 in0.0 mm 0.00 in/hr0.0 mm/hr 0.00 in0.0 mm
01:11 PM 31.1°F-0.5°C 16.3°F-8.7°C 54% 7.7 mph WNW12.4 kmh WNW 12.0 mph19.3 kmh 28.76 in973.9 mb 0.00 in0.0 mm 0.00 in/hr0.0 mm/hr 0.00 in0.0 mm
01:06 PM 31.1°F-0.5°C 16.3°F-8.7°C 54% 6.3 mph W10.1 kmh W 11.4 mph18.3 kmh 28.76 in973.9 mb 0.00 in0.0 mm 0.00 in/hr0.0 mm/hr 0.00 in0.0 mm
01:00 PM 31.3°F-0.4°C 16.0°F-8.9°C 53% 5.6 mph WNW9.0 kmh WNW 8.7 mph14.0 kmh 28.76 in973.9 mb 0.00 in0.0 mm 0.00 in/hr0.0 mm/hr 0.00 in0.0 mm
12:54 PM 31.1°F-0.5°C 15.8°F-9.0°C 53% 5.6 mph WNW9.0 kmh WNW 10.4 mph16.7 kmh 28.76 in973.9 mb 0.00 in0.0 mm 0.00 in/hr0.0 mm/hr 0.00 in0.0 mm
12:49 PM 31.1°F-0.5°C 15.8°F-9.0°C 53% 7.1 mph WNW11.4 kmh WNW 10.4 mph16.7 kmh 28.76 in973.9 mb 0.00 in0.0 mm 0.00 in/hr0.0 mm/hr 0.00 in0.0 mm
12:44 PM 31.1°F-0.5°C 15.2°F-9.3°C 52% 5.9 mph WNW9.5 kmh WNW 8.7 mph14.0 kmh 28.76 in973.9 mb 0.00 in0.0 mm 0.00 in/hr0.0 mm/hr 0.00 in0.0 mm
12:39 PM 31.1°F-0.5°C 15.2°F-9.3°C 52% 4.3 mph WNW6.9 kmh WNW 8.7 mph14.0 kmh 28.76 in973.9 mb 0.00 in0.0 mm 0.00 in/hr0.0 mm/hr 0.00 in0.0 mm
12:34 PM 31.3°F-0.4°C 15.4°F-9.2°C 52% 5.4 mph WNW8.7 kmh WNW 8.7 mph14.0 kmh 28.76 in973.9 mb 0.00 in0.0 mm 0.00 in/hr0.0 mm/hr 0.00 in0.0 mm
12:29 PM 31.3°F-0.4°C 15.4°F-9.2°C 52% 5.5 mph WNW8.9 kmh WNW 8.7 mph14.0 kmh 28.76 in973.9 mb 0.00 in0.0 mm 0.00 in/hr0.0 mm/hr 0.00 in0.0 mm
12:24 PM 31.5°F-0.3°C 15.6°F-9.1°C 52% 6.2 mph W10.0 kmh W 8.7 mph14.0 kmh 28.76 in973.9 mb 0.00 in0.0 mm 0.00 in/hr0.0 mm/hr 0.00 in0.0 mm
12:19 PM 31.6°F-0.2°C 15.7°F-9.1°C 52% 5.9 mph W9.5 kmh W 8.7 mph14.0 kmh 28.76 in973.9 mb 0.00 in0.0 mm 0.00 in/hr0.0 mm/hr 0.00 in0.0 mm
12:14 PM 32.0°F0.0°C 16.1°F-8.8°C 52% 4.1 mph W6.6 kmh W 8.7 mph14.0 kmh 28.76 in973.9 mb 0.00 in0.0 mm 0.00 in/hr0.0 mm/hr 0.00 in0.0 mm
12:09 PM 32.0°F0.0°C 16.1°F-8.8°C 52% 3.7 mph W6.0 kmh W 6.7 mph10.8 kmh 28.76 in973.9 mb 0.00 in0.0 mm 0.00 in/hr0.0 mm/hr 0.00 in0.0 mm
12:04 PM 32.0°F0.0°C 16.1°F-8.8°C 52% 3.4 mph W5.5 kmh W 6.7 mph10.8 kmh 28.76 in973.9 mb 0.00 in0.0 mm 0.00 in/hr0.0 mm/hr 0.00 in0.0 mm
11:58 AM 31.8°F-0.1°C 15.9°F-8.9°C 52% Calm Calm -- 28.76 in973.9 mb 0.00 in0.0 mm 0.00 in/hr0.0 mm/hr 0.00 in0.0 mm
11:53 AM 31.8°F-0.1°C 15.9°F-8.9°C 52% Calm Calm -- 28.76 in973.9 mb 0.00 in0.0 mm 0.00 in/hr0.0 mm/hr 0.00 in0.0 mm
11:47 AM 31.8°F-0.1°C 15.9°F-8.9°C 52% Calm Calm 4.9 mph7.9 kmh 28.76 in973.9 mb 0.00 in0.0 mm 0.00 in/hr0.0 mm/hr 0.00 in0.0 mm
11:42 AM 31.8°F-0.1°C 15.9°F-8.9°C 52% Calm Calm 4.9 mph7.9 kmh 28.76 in973.9 mb 0.00 in0.0 mm 0.00 in/hr0.0 mm/hr 0.00 in0.0 mm
11:37 AM 31.6°F-0.2°C 15.7°F-9.1°C 52% Calm Calm 4.3 mph6.9 kmh 28.76 in973.9 mb 0.00 in0.0 mm 0.00 in/hr0.0 mm/hr 0.00 in0.0 mm
11:32 AM 31.6°F-0.2°C 15.7°F-9.1°C 52% Calm Calm 4.9 mph7.9 kmh 28.76 in973.9 mb 0.00 in0.0 mm 0.00 in/hr0.0 mm/hr 0.00 in0.0 mm
11:27 AM 31.5°F-0.3°C 15.6°F-9.1°C 52% Calm Calm 8.0 mph12.9 kmh 28.76 in973.9 mb 0.00 in0.0 mm 0.00 in/hr0.0 mm/hr 0.00 in0.0 mm
11:22 AM 31.5°F-0.3°C 15.6°F-9.1°C 52% 3.4 mph SW5.5 kmh SW 8.0 mph12.9 kmh 28.76 in973.9 mb 0.00 in0.0 mm 0.00 in/hr0.0 mm/hr 0.00 in0.0 mm
11:17 AM 31.5°F-0.3°C 15.6°F-9.1°C 52% 4.2 mph S6.8 kmh S 8.0 mph12.9 kmh 28.76 in973.9 mb 0.00 in0.0 mm 0.00 in/hr0.0 mm/hr 0.00 in0.0 mm
11:12 AM 31.5°F-0.3°C 15.6°F-9.1°C 52% 2.8 mph SSW4.5 kmh SSW 7.4 mph11.9 kmh 28.76 in973.9 mb 0.00 in0.0 mm 0.00 in/hr0.0 mm/hr 0.00 in0.0 mm
11:07 AM 31.5°F-0.3°C 15.6°F-9.1°C 52% 4.4 mph S7.1 kmh S 7.4 mph11.9 kmh 28.76 in973.9 mb 0.00 in0.0 mm 0.00 in/hr0.0 mm/hr 0.00 in0.0 mm
11:02 AM 31.5°F-0.3°C 15.6°F-9.1°C 52% Calm Calm 7.4 mph11.9 kmh 28.76 in973.9 mb 0.00 in0.0 mm 0.00 in/hr0.0 mm/hr 0.00 in0.0 mm
10:57 AM 31.1°F-0.5°C 15.2°F-9.3°C 52% 2.8 mph S4.5 kmh S 8.7 mph14.0 kmh 28.76 in973.9 mb 0.00 in0.0 mm 0.00 in/hr0.0 mm/hr 0.00 in0.0 mm
10:52 AM 31.1°F-0.5°C 15.2°F-9.3°C 52% 5.5 mph S8.9 kmh S 8.7 mph14.0 kmh 28.76 in973.9 mb 0.00 in0.0 mm 0.00 in/hr0.0 mm/hr 0.00 in0.0 mm
10:46 AM 30.7°F-0.7°C 14.9°F-9.5°C 52% 4.5 mph S7.2 kmh S 9.2 mph14.8 kmh 28.76 in973.9 mb 0.00 in0.0 mm 0.00 in/hr0.0 mm/hr 0.00 in0.0 mm
10:41 AM 30.6°F-0.8°C 14.8°F-9.6°C 52% 5.6 mph SSE9.0 kmh SSE 9.2 mph14.8 kmh 28.76 in973.9 mb 0.00 in0.0 mm 0.00 in/hr0.0 mm/hr 0.00 in0.0 mm
10:35 AM 30.2°F-1.0°C 14.4°F-9.8°C 52% 5.4 mph S8.7 kmh S 8.7 mph14.0 kmh 28.76 in973.9 mb 0.00 in0.0 mm 0.00 in/hr0.0 mm/hr 0.00 in0.0 mm
10:30 AM 30.2°F-1.0°C 14.4°F-9.8°C 52% 4.2 mph S6.8 kmh S 8.7 mph14.0 kmh 28.76 in973.9 mb 0.00 in0.0 mm 0.00 in/hr0.0 mm/hr 0.00 in0.0 mm
10:24 AM 29.8°F-1.2°C 14.0°F-10.0°C 51% 5.8 mph S9.3 kmh S 10.4 mph16.7 kmh 28.76 in973.9 mb 0.00 in0.0 mm 0.00 in/hr0.0 mm/hr 0.00 in0.0 mm
10:19 AM 29.7°F-1.3°C 13.9°F-10.1°C 51% 5.4 mph SSE8.7 kmh SSE 12.0 mph19.3 kmh 28.76 in973.9 mb 0.00 in0.0 mm 0.00 in/hr0.0 mm/hr 0.00 in0.0 mm
10:14 AM 29.5°F-1.4°C 13.7°F-10.2°C 51% 6.1 mph SSE9.8 kmh SSE 12.0 mph19.3 kmh 28.79 in974.9 mb 0.00 in0.0 mm 0.00 in/hr0.0 mm/hr 0.00 in0.0 mm
10:09 AM 29.5°F-1.4°C 13.7°F-10.2°C 51% 6.2 mph SSE10.0 kmh SSE 11.4 mph18.3 kmh 28.79 in974.9 mb 0.00 in0.0 mm 0.00 in/hr0.0 mm/hr 0.00 in0.0 mm
10:04 AM 29.3°F-1.5°C 13.5°F-10.3°C 51% 5.1 mph S8.2 kmh S 11.4 mph18.3 kmh 28.79 in974.9 mb 0.00 in0.0 mm 0.00 in/hr0.0 mm/hr 0.00 in0.0 mm
09:59 AM 29.1°F-1.6°C 13.9°F-10.1°C 53% 5.9 mph SSE9.5 kmh SSE 11.4 mph18.3 kmh 28.79 in974.9 mb 0.00 in0.0 mm 0.00 in/hr0.0 mm/hr 0.00 in0.0 mm
09:53 AM 28.9°F-1.7°C 13.7°F-10.2°C 53% 8.4 mph S13.5 kmh S 11.4 mph18.3 kmh 28.79 in974.9 mb 0.00 in0.0 mm 0.00 in/hr0.0 mm/hr 0.00 in0.0 mm
09:48 AM 28.8°F-1.8°C 13.6°F-10.2°C 53% 6.4 mph S10.3 kmh S 11.4 mph18.3 kmh 28.79 in974.9 mb 0.00 in0.0 mm 0.00 in/hr0.0 mm/hr 0.00 in0.0 mm
09:43 AM 28.6°F-1.9°C 13.4°F-10.3°C 53% 5.8 mph S9.3 kmh S 12.0 mph19.3 kmh 28.79 in974.9 mb 0.00 in0.0 mm 0.00 in/hr0.0 mm/hr 0.00 in0.0 mm
09:38 AM 28.6°F-1.9°C 13.4°F-10.3°C 53% 9.2 mph SSE14.8 kmh SSE 13.9 mph22.4 kmh 28.79 in974.9 mb 0.00 in0.0 mm 0.00 in/hr0.0 mm/hr 0.00 in0.0 mm
09:33 AM 28.4°F-2.0°C 13.2°F-10.4°C 53% 9.7 mph SSE15.6 kmh SSE 13.9 mph22.4 kmh 28.79 in974.9 mb 0.00 in0.0 mm 0.00 in/hr0.0 mm/hr 0.00 in0.0 mm
09:28 AM 28.2°F-2.1°C 13.0°F-10.6°C 53% 7.5 mph SSE12.1 kmh SSE 13.9 mph22.4 kmh 28.79 in974.9 mb 0.00 in0.0 mm 0.00 in/hr0.0 mm/hr 0.00 in0.0 mm
09:23 AM 28.2°F-2.1°C 13.0°F-10.6°C 53% 7.3 mph SSE11.7 kmh SSE 15.7 mph25.3 kmh 28.79 in974.9 mb 0.00 in0.0 mm 0.00 in/hr0.0 mm/hr 0.00 in0.0 mm
09:18 AM 28.0°F-2.2°C 12.8°F-10.7°C 52% 9.4 mph SSE15.1 kmh SSE 15.7 mph25.3 kmh 28.79 in974.9 mb 0.00 in0.0 mm 0.00 in/hr0.0 mm/hr 0.00 in0.0 mm
09:13 AM 27.9°F-2.3°C 12.7°F-10.7°C 52% 8.3 mph SSE13.4 kmh SSE 15.1 mph24.3 kmh 28.79 in974.9 mb 0.00 in0.0 mm 0.00 in/hr0.0 mm/hr 0.00 in0.0 mm
09:08 AM 27.7°F-2.4°C 12.5°F-10.8°C 52% 9.5 mph SSE15.3 kmh SSE 15.1 mph24.3 kmh 28.79 in974.9 mb 0.00 in0.0 mm 0.00 in/hr0.0 mm/hr 0.00 in0.0 mm
09:03 AM 27.5°F-2.5°C 12.3°F-10.9°C 52% 8.1 mph SE13.0 kmh SE 13.9 mph22.4 kmh 28.79 in974.9 mb 0.00 in0.0 mm 0.00 in/hr0.0 mm/hr 0.00 in0.0 mm
08:58 AM 27.3°F-2.6°C 12.1°F-11.1°C 52% 8.5 mph SSE13.7 kmh SSE 13.9 mph22.4 kmh 28.82 in976.0 mb 0.00 in0.0 mm 0.00 in/hr0.0 mm/hr 0.00 in0.0 mm
08:52 AM 27.1°F-2.7°C 12.4°F-10.9°C 54% 8.5 mph SSE13.7 kmh SSE 13.9 mph22.4 kmh 28.82 in976.0 mb 0.00 in0.0 mm 0.00 in/hr0.0 mm/hr 0.00 in0.0 mm
08:47 AM 27.0°F-2.8°C 12.3°F-10.9°C 54% 7.6 mph SE12.2 kmh SE 13.2 mph21.2 kmh 28.82 in976.0 mb 0.00 in0.0 mm 0.00 in/hr0.0 mm/hr 0.00 in0.0 mm
08:42 AM 26.8°F-2.9°C 11.6°F-11.3°C 52% 7.8 mph SSE12.6 kmh SSE 13.2 mph21.2 kmh 28.82 in976.0 mb 0.00 in0.0 mm 0.00 in/hr0.0 mm/hr 0.00 in0.0 mm
08:37 AM 26.8°F-2.9°C 11.6°F-11.3°C 52% 7.0 mph SE11.3 kmh SE 13.2 mph21.2 kmh 28.82 in976.0 mb 0.00 in0.0 mm 0.00 in/hr0.0 mm/hr 0.00 in0.0 mm
08:32 AM 26.6°F-3.0°C 11.4°F-11.4°C 52% 6.3 mph SSE10.1 kmh SSE 11.1 mph17.9 kmh 28.82 in976.0 mb 0.00 in0.0 mm 0.00 in/hr0.0 mm/hr 0.00 in0.0 mm
08:27 AM 26.6°F-3.0°C 11.4°F-11.4°C 52% 5.7 mph SE9.2 kmh SE 12.0 mph19.3 kmh 28.82 in976.0 mb 0.00 in0.0 mm 0.00 in/hr0.0 mm/hr 0.00 in0.0 mm
08:22 AM 26.6°F-3.0°C 11.4°F-11.4°C 52% 8.2 mph SE13.2 kmh SE 12.0 mph19.3 kmh 28.82 in976.0 mb 0.00 in0.0 mm 0.00 in/hr0.0 mm/hr 0.00 in0.0 mm
08:17 AM 26.8°F-2.9°C 11.0°F-11.7°C 51% 6.6 mph SE10.6 kmh SE 12.6 mph20.3 kmh 28.82 in976.0 mb 0.00 in0.0 mm 0.00 in/hr0.0 mm/hr 0.00 in0.0 mm
08:12 AM 27.0°F-2.8°C 11.2°F-11.6°C 51% 6.8 mph SE10.9 kmh SE 16.4 mph26.4 kmh 28.82 in976.0 mb 0.00 in0.0 mm 0.00 in/hr0.0 mm/hr 0.00 in0.0 mm
08:07 AM 27.0°F-2.8°C 10.7°F-11.8°C 50% 10.2 mph SE16.4 kmh SE 16.4 mph26.4 kmh 28.82 in976.0 mb 0.00 in0.0 mm 0.00 in/hr0.0 mm/hr 0.00 in0.0 mm
08:02 AM 27.0°F-2.8°C 10.7°F-11.8°C 50% 7.5 mph SSE12.1 kmh SSE 18.1 mph29.1 kmh 28.82 in976.0 mb 0.00 in0.0 mm 0.00 in/hr0.0 mm/hr 0.00 in0.0 mm
07:57 AM 27.0°F-2.8°C 10.6°F-11.9°C 50% 11.9 mph SE19.2 kmh SE 18.1 mph29.1 kmh 28.82 in976.0 mb 0.00 in0.0 mm 0.00 in/hr0.0 mm/hr 0.00 in0.0 mm
07:51 AM 27.0°F-2.8°C 10.6°F-11.9°C 50% 8.9 mph SSE14.3 kmh SSE 12.0 mph19.3 kmh 28.82 in976.0 mb 0.00 in0.0 mm 0.00 in/hr0.0 mm/hr 0.00 in0.0 mm
07:46 AM 27.0°F-2.8°C 10.6°F-11.9°C 50% 7.0 mph SE11.3 kmh SE 11.4 mph18.3 kmh 28.82 in976.0 mb 0.00 in0.0 mm 0.00 in/hr0.0 mm/hr 0.00 in0.0 mm
07:41 AM 27.0°F-2.8°C 10.6°F-11.9°C 50% 6.8 mph SE10.9 kmh SE 13.9 mph22.4 kmh 28.82 in976.0 mb 0.00 in0.0 mm 0.00 in/hr0.0 mm/hr 0.00 in0.0 mm
07:36 AM 27.0°F-2.8°C 10.6°F-11.9°C 50% 8.9 mph SSE14.3 kmh SSE 15.7 mph25.3 kmh 28.82 in976.0 mb 0.00 in0.0 mm 0.00 in/hr0.0 mm/hr 0.00 in0.0 mm
07:31 AM 27.0°F-2.8°C 10.6°F-11.9°C 50% 9.4 mph SE15.1 kmh SE 15.7 mph25.3 kmh 28.85 in977.0 mb 0.00 in0.0 mm 0.00 in/hr0.0 mm/hr 0.00 in0.0 mm
07:26 AM 27.0°F-2.8°C 10.6°F-11.9°C 50% 7.6 mph SE12.2 kmh SE 11.4 mph18.3 kmh 28.85 in977.0 mb 0.00 in0.0 mm 0.00 in/hr0.0 mm/hr 0.00 in0.0 mm
07:21 AM 27.0°F-2.8°C 10.6°F-11.9°C 50% 6.3 mph SE10.1 kmh SE 15.1 mph24.3 kmh 28.85 in977.0 mb 0.00 in0.0 mm 0.00 in/hr0.0 mm/hr 0.00 in0.0 mm
07:16 AM 27.0°F-2.8°C 10.6°F-11.9°C 50% 9.7 mph SSE15.6 kmh SSE 15.1 mph24.3 kmh 28.85 in977.0 mb 0.00 in0.0 mm 0.00 in/hr0.0 mm/hr 0.00 in0.0 mm
07:10 AM 26.8°F-2.9°C 10.4°F-12.0°C 50% 7.2 mph SSE11.6 kmh SSE 16.9 mph27.2 kmh 28.85 in977.0 mb 0.00 in0.0 mm 0.00 in/hr0.0 mm/hr 0.00 in0.0 mm
07:05 AM 26.8°F-2.9°C 9.8°F-12.3°C 48% 9.3 mph SE15.0 kmh SE 16.9 mph27.2 kmh 28.85 in977.0 mb 0.00 in0.0 mm 0.00 in/hr0.0 mm/hr 0.00 in0.0 mm
07:00 AM 26.8°F-2.9°C 9.8°F-12.3°C 48% 7.2 mph SE11.6 kmh SE 17.6 mph28.3 kmh 28.85 in977.0 mb 0.00 in0.0 mm 0.00 in/hr0.0 mm/hr 0.00 in0.0 mm
06:55 AM 26.8°F-2.9°C 9.8°F-12.3°C 48% 8.0 mph SE12.9 kmh SE 20.6 mph33.2 kmh 28.85 in977.0 mb 0.00 in0.0 mm 0.00 in/hr0.0 mm/hr 0.00 in0.0 mm
06:50 AM 26.8°F-2.9°C 9.8°F-12.3°C 48% 11.3 mph SSE18.2 kmh SSE 20.6 mph33.2 kmh 28.85 in977.0 mb 0.00 in0.0 mm 0.00 in/hr0.0 mm/hr 0.00 in0.0 mm
06:45 AM 26.8°F-2.9°C 9.7°F-12.4°C 48% 8.8 mph S14.2 kmh S 18.1 mph29.1 kmh 28.88 in978.0 mb 0.00 in0.0 mm 0.00 in/hr0.0 mm/hr 0.00 in0.0 mm
06:40 AM 26.8°F-2.9°C 9.7°F-12.4°C 48% 9.1 mph SSE14.6 kmh SSE 18.1 mph29.1 kmh 28.88 in978.0 mb 0.00 in0.0 mm 0.00 in/hr0.0 mm/hr 0.00 in0.0 mm
06:35 AM 26.8°F-2.9°C 9.7°F-12.4°C 48% 8.9 mph SE14.3 kmh SE 15.7 mph25.3 kmh 28.88 in978.0 mb 0.00 in0.0 mm 0.00 in/hr0.0 mm/hr 0.00 in0.0 mm
06:30 AM 26.8°F-2.9°C 9.7°F-12.4°C 48% 9.9 mph SSE15.9 kmh SSE 15.7 mph25.3 kmh 28.88 in978.0 mb 0.00 in0.0 mm 0.00 in/hr0.0 mm/hr 0.00 in0.0 mm
06:25 AM 26.8°F-2.9°C 9.2°F-12.7°C 47% 7.8 mph SSE12.6 kmh SSE 18.1 mph29.1 kmh 28.88 in978.0 mb 0.00 in0.0 mm 0.00 in/hr0.0 mm/hr 0.00 in0.0 mm
06:19 AM 26.8°F-2.9°C 9.2°F-12.7°C 47% 9.1 mph SSE14.6 kmh SSE 18.1 mph29.1 kmh 28.88 in978.0 mb 0.00 in0.0 mm 0.00 in/hr0.0 mm/hr 0.00 in0.0 mm
06:14 AM 26.8°F-2.9°C 9.2°F-12.7°C 47% 7.3 mph S11.7 kmh S 16.9 mph27.2 kmh 28.88 in978.0 mb 0.00 in0.0 mm 0.00 in/hr0.0 mm/hr 0.00 in0.0 mm
06:08 AM 26.8°F-2.9°C 9.2°F-12.7°C 47% 9.2 mph SSE14.8 kmh SSE 18.1 mph29.1 kmh 28.88 in978.0 mb 0.00 in0.0 mm 0.00 in/hr0.0 mm/hr 0.00 in0.0 mm
06:04 AM 26.8°F-2.9°C 9.2°F-12.7°C 47% 10.0 mph SSE16.1 kmh SSE 18.1 mph29.1 kmh 28.88 in978.0 mb 0.00 in0.0 mm 0.00 in/hr0.0 mm/hr 0.00 in0.0 mm
05:58 AM 26.8°F-2.9°C 9.2°F-12.7°C 47% 10.2 mph SE16.4 kmh SE 21.2 mph34.1 kmh 28.88 in978.0 mb 0.00 in0.0 mm 0.00 in/hr0.0 mm/hr 0.00 in0.0 mm
05:53 AM 27.0°F-2.8°C 8.8°F-12.9°C 46% 12.0 mph SSE19.3 kmh SSE 21.2 mph34.1 kmh 28.88 in978.0 mb 0.00 in0.0 mm 0.00 in/hr0.0 mm/hr 0.00 in0.0 mm
05:48 AM 27.0°F-2.8°C 8.9°F-12.8°C 46% 8.9 mph SE14.3 kmh SE 18.7 mph30.1 kmh 28.88 in978.0 mb 0.00 in0.0 mm 0.00 in/hr0.0 mm/hr 0.00 in0.0 mm
05:43 AM 26.8°F-2.9°C 8.7°F-12.9°C 46% 11.0 mph SE17.7 kmh SE 18.7 mph30.1 kmh 28.91 in979.0 mb 0.00 in0.0 mm 0.00 in/hr0.0 mm/hr 0.00 in0.0 mm
05:38 AM 26.8°F-2.9°C 8.7°F-12.9°C 46% 7.5 mph SSE12.1 kmh SSE 18.1 mph29.1 kmh 28.91 in979.0 mb 0.00 in0.0 mm 0.00 in/hr0.0 mm/hr 0.00 in0.0 mm
05:33 AM 26.6°F-3.0°C 8.5°F-13.1°C 46% 10.6 mph SE17.1 kmh SE 18.1 mph29.1 kmh 28.91 in979.0 mb 0.00 in0.0 mm 0.00 in/hr0.0 mm/hr 0.00 in0.0 mm
05:28 AM 26.6°F-3.0°C 8.5°F-13.1°C 46% 8.0 mph SE12.9 kmh SE 21.2 mph34.1 kmh 28.91 in979.0 mb 0.00 in0.0 mm 0.00 in/hr0.0 mm/hr 0.00 in0.0 mm
05:23 AM 26.6°F-3.0°C 8.6°F-13.0°C 46% 10.6 mph SSE17.1 kmh SSE 21.2 mph34.1 kmh 28.91 in979.0 mb 0.00 in0.0 mm 0.00 in/hr0.0 mm/hr 0.00 in0.0 mm
05:18 AM 26.6°F-3.0°C 8.6°F-13.0°C 46% 10.2 mph SE16.4 kmh SE 19.4 mph31.2 kmh 28.94 in980.0 mb 0.00 in0.0 mm 0.00 in/hr0.0 mm/hr 0.00 in0.0 mm
05:13 AM 26.6°F-3.0°C 8.6°F-13.0°C 46% 11.1 mph SE17.9 kmh SE 19.4 mph31.2 kmh 28.94 in980.0 mb 0.00 in0.0 mm 0.00 in/hr0.0 mm/hr 0.00 in0.0 mm
05:08 AM 26.6°F-3.0°C 8.0°F-13.3°C 45% 8.9 mph SSE14.3 kmh SSE 21.2 mph34.1 kmh 28.94 in980.0 mb 0.00 in0.0 mm 0.00 in/hr0.0 mm/hr 0.00 in0.0 mm
05:03 AM 26.8°F-2.9°C 8.2°F-13.2°C 45% 11.2 mph SE18.0 kmh SE 21.2 mph34.1 kmh 28.94 in980.0 mb 0.00 in0.0 mm 0.00 in/hr0.0 mm/hr 0.00 in0.0 mm
04:58 AM 26.8°F-2.9°C 8.2°F-13.2°C 45% 10.3 mph SSE16.6 kmh SSE 20.6 mph33.2 kmh 28.94 in980.0 mb 0.00 in0.0 mm 0.00 in/hr0.0 mm/hr 0.00 in0.0 mm
04:53 AM 26.8°F-2.9°C 8.2°F-13.2°C 45% 11.1 mph S17.9 kmh S 20.6 mph33.2 kmh 28.94 in980.0 mb 0.00 in0.0 mm 0.00 in/hr0.0 mm/hr 0.00 in0.0 mm
04:48 AM 26.8°F-2.9°C 8.2°F-13.2°C 45% 10.3 mph S16.6 kmh S 17.6 mph28.3 kmh 28.94 in980.0 mb 0.00 in0.0 mm 0.00 in/hr0.0 mm/hr 0.00 in0.0 mm
04:43 AM 26.8°F-2.9°C 8.3°F-13.2°C 45% 9.5 mph SE15.3 kmh SE 23.1 mph37.2 kmh 28.94 in980.0 mb 0.00 in0.0 mm 0.00 in/hr0.0 mm/hr 0.00 in0.0 mm
04:38 AM 26.8°F-2.9°C 8.3°F-13.2°C 45% 11.5 mph SSE18.5 kmh SSE 23.1 mph37.2 kmh 28.94 in980.0 mb 0.00 in0.0 mm 0.00 in/hr0.0 mm/hr 0.00 in0.0 mm
04:33 AM 26.6°F-3.0°C 8.1°F-13.3°C 45% 10.4 mph SSE16.7 kmh SSE 18.1 mph29.1 kmh 28.94 in980.0 mb 0.00 in0.0 mm 0.00 in/hr0.0 mm/hr 0.00 in0.0 mm
04:28 AM 26.6°F-3.0°C 8.1°F-13.3°C 45% 12.3 mph SSE19.8 kmh SSE 25.8 mph41.5 kmh 28.94 in980.0 mb 0.00 in0.0 mm 0.00 in/hr0.0 mm/hr 0.00 in0.0 mm
04:23 AM 26.6°F-3.0°C 8.1°F-13.3°C 45% 14.0 mph SSE22.5 kmh SSE 25.8 mph41.5 kmh 28.94 in980.0 mb 0.00 in0.0 mm 0.00 in/hr0.0 mm/hr 0.00 in0.0 mm
04:18 AM 26.4°F-3.1°C 7.9°F-13.4°C 45% 14.1 mph SE22.7 kmh SE 21.2 mph34.1 kmh 28.94 in980.0 mb 0.00 in0.0 mm 0.00 in/hr0.0 mm/hr 0.00 in0.0 mm
04:13 AM 26.4°F-3.1°C 8.0°F-13.3°C 45% 12.4 mph SE20.0 kmh SE 21.2 mph34.1 kmh 28.94 in980.0 mb 0.00 in0.0 mm 0.00 in/hr0.0 mm/hr 0.00 in0.0 mm
04:08 AM 26.4°F-3.1°C 7.4°F-13.7°C 44% 12.7 mph SSE20.4 kmh SSE 20.6 mph33.2 kmh 28.94 in980.0 mb 0.00 in0.0 mm 0.00 in/hr0.0 mm/hr 0.00 in0.0 mm
04:03 AM 26.4°F-3.1°C 7.4°F-13.7°C 44% 12.0 mph SSE19.3 kmh SSE 19.9 mph32.0 kmh 28.97 in981.0 mb 0.00 in0.0 mm 0.00 in/hr0.0 mm/hr 0.00 in0.0 mm
03:57 AM 26.4°F-3.1°C 7.4°F-13.7°C 44% 11.7 mph SE18.8 kmh SE 21.2 mph34.1 kmh 28.97 in981.0 mb 0.00 in0.0 mm 0.00 in/hr0.0 mm/hr 0.00 in0.0 mm
03:52 AM 26.4°F-3.1°C 7.4°F-13.7°C 44% 12.6 mph SE20.3 kmh SE 22.4 mph36.0 kmh 28.97 in981.0 mb 0.00 in0.0 mm 0.00 in/hr0.0 mm/hr 0.00 in0.0 mm
03:47 AM 26.4°F-3.1°C 7.4°F-13.7°C 44% 11.4 mph SE18.3 kmh SE 22.4 mph36.0 kmh 28.97 in981.0 mb 0.00 in0.0 mm 0.00 in/hr0.0 mm/hr 0.00 in0.0 mm
03:42 AM 26.4°F-3.1°C 7.4°F-13.7°C 44% 14.4 mph SE23.2 kmh SE 22.4 mph36.0 kmh 28.97 in981.0 mb 0.00 in0.0 mm 0.00 in/hr0.0 mm/hr 0.00 in0.0 mm
03:37 AM 26.4°F-3.1°C 7.4°F-13.7°C 44% 11.8 mph SSE19.0 kmh SSE 21.2 mph34.1 kmh 28.97 in981.0 mb 0.00 in0.0 mm 0.00 in/hr0.0 mm/hr 0.00 in0.0 mm
03:32 AM 26.2°F-3.2°C 7.3°F-13.7°C 44% 9.5 mph SSE15.3 kmh SSE 21.2 mph34.1 kmh 29.00 in982.1 mb 0.00 in0.0 mm 0.00 in/hr0.0 mm/hr 0.00 in0.0 mm
03:27 AM 26.2°F-3.2°C 7.3°F-13.7°C 44% 11.0 mph SE17.7 kmh SE 20.6 mph33.2 kmh 29.00 in982.1 mb 0.00 in0.0 mm 0.00 in/hr0.0 mm/hr 0.00 in0.0 mm
03:22 AM 26.1°F-3.3°C 7.2°F-13.8°C 44% 8.9 mph SE14.3 kmh SE 18.7 mph30.1 kmh 29.00 in982.1 mb 0.00 in0.0 mm 0.00 in/hr0.0 mm/hr 0.00 in0.0 mm
03:17 AM 26.1°F-3.3°C 6.6°F-14.1°C 43% 9.5 mph SSE15.3 kmh SSE 18.7 mph30.1 kmh 29.00 in982.1 mb 0.00 in0.0 mm 0.00 in/hr0.0 mm/hr 0.00 in0.0 mm
03:12 AM 26.1°F-3.3°C 6.6°F-14.1°C 43% 12.9 mph SSE20.8 kmh SSE 18.1 mph29.1 kmh 29.00 in982.1 mb 0.00 in0.0 mm 0.00 in/hr0.0 mm/hr 0.00 in0.0 mm
03:06 AM 26.1°F-3.3°C 6.6°F-14.1°C 43% 10.4 mph SSE16.7 kmh SSE 20.6 mph33.2 kmh 29.00 in982.1 mb 0.00 in0.0 mm 0.00 in/hr0.0 mm/hr 0.00 in0.0 mm
03:01 AM 26.1°F-3.3°C 6.6°F-14.1°C 43% 11.1 mph SE17.9 kmh SE 20.6 mph33.2 kmh 29.00 in982.1 mb 0.00 in0.0 mm 0.00 in/hr0.0 mm/hr 0.00 in0.0 mm
02:55 AM 26.1°F-3.3°C 6.6°F-14.1°C 43% 9.9 mph SE15.9 kmh SE 18.1 mph29.1 kmh 29.00 in982.1 mb 0.00 in0.0 mm 0.00 in/hr0.0 mm/hr 0.00 in0.0 mm
02:50 AM 25.9°F-3.4°C 6.5°F-14.2°C 43% 11.8 mph SE19.0 kmh SE 23.4 mph37.7 kmh 29.00 in982.1 mb 0.00 in0.0 mm 0.00 in/hr0.0 mm/hr 0.00 in0.0 mm
02:45 AM 25.9°F-3.4°C 6.5°F-14.2°C 43% 9.9 mph SSE15.9 kmh SSE 23.4 mph37.7 kmh 29.03 in983.1 mb 0.00 in0.0 mm 0.00 in/hr0.0 mm/hr 0.00 in0.0 mm
02:40 AM 25.9°F-3.4°C 6.5°F-14.2°C 43% 13.1 mph SE21.1 kmh SE 23.4 mph37.7 kmh 29.03 in983.1 mb 0.00 in0.0 mm 0.00 in/hr0.0 mm/hr 0.00 in0.0 mm
02:35 AM 25.7°F-3.5°C 6.3°F-14.3°C 43% 11.3 mph SSE18.2 kmh SSE 17.6 mph28.3 kmh 29.03 in983.1 mb 0.00 in0.0 mm 0.00 in/hr0.0 mm/hr 0.00 in0.0 mm
02:30 AM 25.7°F-3.5°C 6.3°F-14.3°C 43% 11.2 mph SE18.0 kmh SE 21.2 mph34.1 kmh 29.03 in983.1 mb 0.00 in0.0 mm 0.00 in/hr0.0 mm/hr 0.00 in0.0 mm
02:25 AM 25.7°F-3.5°C 6.3°F-14.3°C 43% 11.5 mph SE18.5 kmh SE 22.4 mph36.0 kmh 29.03 in983.1 mb 0.00 in0.0 mm 0.00 in/hr0.0 mm/hr 0.00 in0.0 mm
02:20 AM 25.7°F-3.5°C 5.7°F-14.6°C 42% 12.8 mph SE20.6 kmh SE 22.4 mph36.0 kmh 29.03 in983.1 mb 0.00 in0.0 mm 0.00 in/hr0.0 mm/hr 0.00 in0.0 mm
02:15 AM 25.7°F-3.5°C 5.7°F-14.6°C 42% 10.4 mph SSE16.7 kmh SSE 18.1 mph29.1 kmh 29.06 in984.1 mb 0.00 in0.0 mm 0.00 in/hr0.0 mm/hr 0.00 in0.0 mm
02:10 AM 25.7°F-3.5°C 5.7°F-14.6°C 42% 11.8 mph SSE19.0 kmh SSE 18.1 mph29.1 kmh 29.06 in984.1 mb 0.00 in0.0 mm 0.00 in/hr0.0 mm/hr 0.00 in0.0 mm
02:05 AM 25.5°F-3.6°C 5.6°F-14.7°C 42% 11.3 mph SSE18.2 kmh SSE 18.7 mph30.1 kmh 29.06 in984.1 mb 0.00 in0.0 mm 0.00 in/hr0.0 mm/hr 0.00 in0.0 mm
02:00 AM 25.5°F-3.6°C 5.6°F-14.7°C 42% 13.1 mph SSE21.1 kmh SSE 18.7 mph30.1 kmh 29.06 in984.1 mb 0.00 in0.0 mm 0.00 in/hr0.0 mm/hr 0.00 in0.0 mm
01:54 AM 25.3°F-3.7°C 5.4°F-14.8°C 42% 10.5 mph SSE16.9 kmh SSE 17.6 mph28.3 kmh 29.06 in984.1 mb 0.00 in0.0 mm 0.00 in/hr0.0 mm/hr 0.00 in0.0 mm
01:49 AM 25.3°F-3.7°C 5.4°F-14.8°C 42% 9.8 mph SSE15.8 kmh SSE 19.4 mph31.2 kmh 29.06 in984.1 mb 0.00 in0.0 mm 0.00 in/hr0.0 mm/hr 0.00 in0.0 mm
01:44 AM 25.3°F-3.7°C 5.4°F-14.8°C 42% 12.0 mph SSE19.3 kmh SSE 19.4 mph31.2 kmh 29.06 in984.1 mb 0.00 in0.0 mm 0.00 in/hr0.0 mm/hr 0.00 in0.0 mm
01:39 AM 25.3°F-3.7°C 5.4°F-14.8°C 42% 8.2 mph SSE13.2 kmh SSE 17.6 mph28.3 kmh 29.06 in984.1 mb 0.00 in0.0 mm 0.00 in/hr0.0 mm/hr 0.00 in0.0 mm
01:33 AM 25.3°F-3.7°C 5.4°F-14.8°C 42% 8.3 mph SSE13.4 kmh SSE 18.1 mph29.1 kmh 29.06 in984.1 mb 0.00 in0.0 mm 0.00 in/hr0.0 mm/hr 0.00 in0.0 mm
01:28 AM 25.3°F-3.7°C 5.4°F-14.8°C 42% 9.9 mph SE15.9 kmh SE 18.1 mph29.1 kmh 29.06 in984.1 mb 0.00 in0.0 mm 0.00 in/hr0.0 mm/hr 0.00 in0.0 mm
01:23 AM 25.3°F-3.7°C 5.4°F-14.8°C 42% 11.2 mph SSE18.0 kmh SSE 18.1 mph29.1 kmh 29.06 in984.1 mb 0.00 in0.0 mm 0.00 in/hr0.0 mm/hr 0.00 in0.0 mm
01:18 AM 25.2°F-3.8°C 4.7°F-15.2°C 41% 11.7 mph SE18.8 kmh SE 18.1 mph29.1 kmh 29.06 in984.1 mb 0.00 in0.0 mm 0.00 in/hr0.0 mm/hr 0.00 in0.0 mm
01:13 AM 25.2°F-3.8°C 4.7°F-15.2°C 41% 10.2 mph SSE16.4 kmh SSE 18.1 mph29.1 kmh 29.06 in984.1 mb 0.00 in0.0 mm 0.00 in/hr0.0 mm/hr 0.00 in0.0 mm
01:08 AM 25.0°F-3.9°C 4.5°F-15.3°C 41% 12.0 mph SE19.3 kmh SE 18.1 mph29.1 kmh 29.06 in984.1 mb 0.00 in0.0 mm 0.00 in/hr0.0 mm/hr 0.00 in0.0 mm
01:03 AM 25.0°F-3.9°C 4.6°F-15.2°C 41% 10.5 mph SSE16.9 kmh SSE 22.4 mph36.0 kmh 29.09 in985.1 mb 0.00 in0.0 mm 0.00 in/hr0.0 mm/hr 0.00 in0.0 mm
12:58 AM 24.8°F-4.0°C 5.0°F-15.0°C 42% 12.6 mph SSE20.3 kmh SSE 22.4 mph36.0 kmh 29.09 in985.1 mb 0.00 in0.0 mm 0.00 in/hr0.0 mm/hr 0.00 in0.0 mm
12:52 AM 24.8°F-4.0°C 5.0°F-15.0°C 43% 13.8 mph SSE22.2 kmh SSE 21.2 mph34.1 kmh 29.09 in985.1 mb 0.00 in0.0 mm 0.00 in/hr0.0 mm/hr 0.00 in0.0 mm
12:47 AM 24.8°F-4.0°C 4.4°F-15.3°C 41% 11.6 mph SSE18.7 kmh SSE 21.2 mph34.1 kmh 29.09 in985.1 mb 0.00 in0.0 mm 0.00 in/hr0.0 mm/hr 0.00 in0.0 mm
12:42 AM 24.6°F-4.1°C 4.2°F-15.4°C 41% 11.3 mph S18.2 kmh S 21.2 mph34.1 kmh 29.09 in985.1 mb 0.00 in0.0 mm 0.00 in/hr0.0 mm/hr 0.00 in0.0 mm
12:37 AM 24.6°F-4.1°C 4.2°F-15.4°C 41% 10.8 mph SSE17.4 kmh SSE 21.2 mph34.1 kmh 29.09 in985.1 mb 0.00 in0.0 mm 0.00 in/hr0.0 mm/hr 0.00 in0.0 mm
12:32 AM 24.6°F-4.1°C 4.2°F-15.4°C 41% 12.4 mph SE20.0 kmh SE 21.2 mph34.1 kmh 29.12 in986.1 mb 0.00 in0.0 mm 0.00 in/hr0.0 mm/hr 0.00 in0.0 mm
12:27 AM 24.6°F-4.1°C 4.2°F-15.4°C 41% 11.9 mph SSE19.2 kmh SSE 21.2 mph34.1 kmh 29.12 in986.1 mb 0.00 in0.0 mm 0.00 in/hr0.0 mm/hr 0.00 in0.0 mm
12:22 AM 24.6°F-4.1°C 4.2°F-15.4°C 41% 12.5 mph SSE20.1 kmh SSE 21.2 mph34.1 kmh 29.12 in986.1 mb 0.00 in0.0 mm 0.00 in/hr0.0 mm/hr 0.00 in0.0 mm
12:17 AM 24.4°F-4.2°C 4.0°F-15.6°C 41% 9.3 mph SSE15.0 kmh SSE 19.4 mph31.2 kmh 29.12 in986.1 mb 0.00 in0.0 mm 0.00 in/hr0.0 mm/hr 0.00 in0.0 mm
12:12 AM 24.4°F-4.2°C 4.0°F-15.6°C 41% 9.4 mph S15.1 kmh S 22.4 mph36.0 kmh 29.12 in986.1 mb 0.00 in0.0 mm 0.00 in/hr0.0 mm/hr 0.00 in0.0 mm
12:07 AM 24.4°F-4.2°C 4.0°F-15.6°C 41% 10.8 mph SSE17.4 kmh SSE 22.4 mph36.0 kmh 29.12 in986.1 mb 0.00 in0.0 mm 0.00 in/hr0.0 mm/hr 0.00 in0.0 mm
12:02 AM 24.4°F-4.2°C 4.0°F-15.6°C 41% 9.8 mph SSE15.8 kmh SSE 18.1 mph29.1 kmh 29.12 in986.1 mb 0.00 in0.0 mm 0.00 in/hr0.0 mm/hr 0.00 in0.0 mm